Time;durP1;ratioP1;P1;durP2;ratioP2;P2;SDS_P1;SDS_P2;PMS_P1;PMS_P2;Temp;Humidity;BMP_temperature;BMP_pressure;BME280_temperature;BME280_humidity;BME280_pressure;Samples;Min_cycle;Max_cycle;Signal;HPM_P1;HPM_P2
2023/01/18 00:01:30;;;;;;;;;18.25;12.50;;;;;;;;5083551;28;61869;-83
2023/01/18 00:03:55;;;;;;;;;13.00;12.00;;;;;;;;5084212;28;61878;-83
2023/01/18 00:06:21;;;;;;;;;16.75;13.25;;;;;;;;5082628;28;61813;-83
2023/01/18 00:08:46;;;;;;;;;19.25;12.75;;;;;;;;5083804;28;61743;-83
2023/01/18 00:11:14;;;;;;;;;22.75;15.50;;;;;;;;5083134;28;61932;-83
2023/01/18 00:13:39;;;;;;;;;17.25;14.00;;;;;;;;5082763;28;61871;-83
2023/01/18 00:16:05;;;;;;;;;27.25;18.25;;;;;;;;5082718;28;61756;-84
2023/01/18 00:18:31;;;;;;;;;21.25;18.75;;;;;;;;5083910;28;62084;-84
2023/01/18 00:21:04;;;;;;;;;24.75;20.50;;;;;;;;5083391;28;62503;-83
2023/01/18 00:23:29;;;;;;;;;25.50;19.50;;;;;;;;5083894;28;62440;-83
2023/01/18 00:25:58;;;;;;;;;19.50;19.50;;;;;;;;5082279;28;62058;-83
2023/01/18 00:28:23;;;;;;;;;23.00;21.75;;;;;;;;5082573;28;61880;-83
2023/01/18 00:30:49;;;;;;;;;21.50;14.75;;;;;;;;5082906;28;62688;-83
2023/01/18 00:33:14;;;;;;;;;25.75;21.75;;;;;;;;5082627;28;61771;-83
2023/01/18 00:35:39;;;;;;;;;27.25;19.25;;;;;;;;5083897;28;61667;-83
2023/01/18 00:38:05;;;;;;;;;27.25;22.25;;;;;;;;5082212;28;61647;-84
2023/01/18 00:40:30;;;;;;;;;23.00;18.50;;;;;;;;5082772;28;62045;-83
2023/01/18 00:45:40;;;;;;;;;33.75;18.75;;;;;;;;5083497;28;61953;-83
2023/01/18 00:48:05;;;;;;;;;23.50;18.00;;;;;;;;5083766;28;61806;-83
2023/01/18 00:50:31;;;;;;;;;29.50;22.50;;;;;;;;5082509;28;61683;-83
2023/01/18 00:52:58;;;;;;;;;20.75;17.50;;;;;;;;5082100;28;61736;-83
2023/01/18 00:55:24;;;;;;;;;29.25;22.50;;;;;;;;5081541;28;62095;-83
2023/01/18 00:57:49;;;;;;;;;29.25;22.25;;;;;;;;5083720;28;62127;-83
2023/01/18 01:00:15;;;;;;;;;30.25;26.00;;;;;;;;5081027;28;64853;-83
2023/01/18 01:02:41;;;;;;;;;30.00;20.50;;;;;;;;5083383;28;61992;-84
2023/01/18 01:08:01;;;;;;;;;33.75;18.25;;;;;;;;5083472;28;61840;-83
2023/01/18 01:10:26;;;;;;;;;24.00;19.75;;;;;;;;5082156;28;62616;-83
2023/01/18 01:26:31;;;;;;;;;20.75;18.00;;;;;;;;5082425;28;61615;-83
2023/01/18 01:28:56;;;;;;;;;24.50;17.50;;;;;;;;5083027;28;61694;-83
2023/01/18 01:31:21;;;;;;;;;18.75;14.50;;;;;;;;5082379;28;61788;-83
2023/01/18 01:33:49;;;;;;;;;20.25;13.75;;;;;;;;5082933;28;61637;-83
2023/01/18 01:36:16;;;;;;;;;20.50;15.75;;;;;;;;5081650;28;61835;-83
2023/01/18 01:38:42;;;;;;;;;22.00;16.75;;;;;;;;5082543;28;61922;-84
2023/01/18 01:41:16;;;;;;;;;14.25;11.75;;;;;;;;5082159;28;62302;-83
2023/01/18 01:43:41;;;;;;;;;13.00;9.75;;;;;;;;5081038;28;61884;-83
2023/01/18 01:46:16;;;;;;;;;23.00;12.00;;;;;;;;5081398;28;61962;-83
2023/01/18 01:48:41;;;;;;;;;21.50;14.25;;;;;;;;5080943;28;61855;-83
2023/01/18 01:51:06;;;;;;;;;18.00;14.75;;;;;;;;5080699;28;64786;-82
2023/01/18 01:53:32;;;;;;;;;15.00;14.00;;;;;;;;5082324;28;62238;-83
2023/01/18 01:55:57;;;;;;;;;19.50;14.00;;;;;;;;5081013;28;62264;-83
2023/01/18 01:58:27;;;;;;;;;17.00;15.25;;;;;;;;5081086;28;61814;-83
2023/01/18 02:00:53;;;;;;;;;23.25;17.75;;;;;;;;5080514;28;64688;-83
2023/01/18 02:03:20;;;;;;;;;25.25;19.75;;;;;;;;5082435;28;61985;-83
2023/01/18 02:05:47;;;;;;;;;17.75;15.75;;;;;;;;5080948;28;62072;-83
2023/01/18 02:08:21;;;;;;;;;18.75;15.00;;;;;;;;5082318;28;61804;-83
2023/01/18 02:10:46;;;;;;;;;17.00;15.50;;;;;;;;5088833;27;62599;-83
2023/01/18 02:13:12;;;;;;;;;23.25;14.00;;;;;;;;5102833;27;61756;-84
2023/01/18 02:15:45;;;;;;;;;19.00;15.50;;;;;;;;5102740;27;61840;-83
2023/01/18 02:18:39;;;;;;;;;21.50;17.00;;;;;;;;5084297;27;61734;-83
2023/01/18 02:21:10;;;;;;;;;19.75;12.00;;;;;;;;5092652;27;61906;-83
2023/01/18 02:23:45;;;;;;;;;17.25;13.50;;;;;;;;5083867;27;61832;-83
2023/01/18 02:26:25;;;;;;;;;19.25;15.25;;;;;;;;5079346;28;61892;-83
2023/01/18 02:28:55;;;;;;;;;14.25;12.50;;;;;;;;5063576;28;61778;-83
2023/01/18 02:31:25;;;;;;;;;15.50;14.00;;;;;;;;5083003;28;61723;-83
2023/01/18 02:34:12;;;;;;;;;15.00;8.50;;;;;;;;5085687;28;61731;-83
2023/01/18 02:36:40;;;;;;;;;10.25;10.25;;;;;;;;5085562;28;61782;-83
2023/01/18 02:39:12;;;;;;;;;16.00;14.50;;;;;;;;5067447;28;62136;-83
2023/01/18 02:47:13;;;;;;;;;16.75;14.50;;;;;;;;5085528;28;61992;-83
2023/01/18 02:49:38;;;;;;;;;17.75;14.00;;;;;;;;5097030;27;61848;-83
2023/01/18 02:52:04;;;;;;;;;17.25;16.50;;;;;;;;5086854;27;64035;-83
2023/01/18 02:54:31;;;;;;;;;26.75;19.00;;;;;;;;5105817;27;62006;-83
2023/01/18 02:56:57;;;;;;;;;26.50;21.75;;;;;;;;5104968;27;61709;-83
2023/01/18 02:59:25;;;;;;;;;22.75;21.00;;;;;;;;5106146;27;61767;-83
2023/01/18 03:01:51;;;;;;;;;19.00;15.50;;;;;;;;5104935;27;61863;-83
2023/01/18 03:04:24;;;;;;;;;24.50;20.25;;;;;;;;5105748;27;61889;-83
2023/01/18 03:07:09;;;;;;;;;23.50;17.25;;;;;;;;5105274;27;61860;-83
2023/01/18 03:09:35;;;;;;;;;24.25;19.50;;;;;;;;5104594;27;62062;-83
2023/01/18 03:12:19;;;;;;;;;21.00;18.00;;;;;;;;5104405;27;61898;-83
2023/01/18 03:14:50;;;;;;;;;27.25;19.00;;;;;;;;5105341;27;61954;-83
2023/01/18 03:17:16;;;;;;;;;32.50;17.25;;;;;;;;5105632;27;62022;-83
2023/01/18 03:25:18;;;;;;;;;22.00;15.00;;;;;;;;5105275;27;61828;-82
2023/01/18 03:36:00;;;;;;;;;21.75;19.50;;;;;;;;5105047;27;62006;-83
2023/01/18 03:38:27;;;;;;;;;21.50;16.75;;;;;;;;5086349;27;61824;-83
2023/01/18 03:40:52;;;;;;;;;21.50;19.00;;;;;;;;5104765;27;61693;-83
2023/01/18 03:43:21;;;;;;;;;23.00;16.00;;;;;;;;5103820;27;62350;-83
2023/01/18 03:45:51;;;;;;;;;25.50;20.75;;;;;;;;5104979;27;61882;-83
2023/01/18 03:48:17;;;;;;;;;22.00;19.75;;;;;;;;5086013;27;61941;-82
2023/01/18 03:50:50;;;;;;;;;29.50;24.25;;;;;;;;5105298;27;62093;-83
2023/01/18 03:53:23;;;;;;;;;21.00;14.25;;;;;;;;5104452;27;62059;-83
2023/01/18 03:55:52;;;;;;;;;22.00;14.50;;;;;;;;5101977;27;62291;-83
2023/01/18 03:58:23;;;;;;;;;17.75;14.00;;;;;;;;5084497;28;61959;-83
2023/01/18 04:00:50;;;;;;;;;17.75;14.50;;;;;;;;5084365;28;61783;-83
2023/01/18 04:03:16;;;;;;;;;18.00;15.25;;;;;;;;5083801;28;62845;-83
2023/01/18 04:05:41;;;;;;;;;20.75;17.25;;;;;;;;5084231;28;61761;-83
2023/01/18 04:08:06;;;;;;;;;18.75;14.75;;;;;;;;5065384;28;61797;-83
2023/01/18 04:10:31;;;;;;;;;16.50;13.50;;;;;;;;5083837;28;61757;-82
2023/01/18 04:12:57;;;;;;;;;18.00;13.00;;;;;;;;5064984;28;63709;-83
2023/01/18 04:15:22;;;;;;;;;23.25;14.75;;;;;;;;5083949;28;61863;-83
2023/01/18 04:17:51;;;;;;;;;21.25;17.50;;;;;;;;5065821;28;61940;-83
2023/01/18 04:20:17;;;;;;;;;13.50;10.25;;;;;;;;5084135;28;61712;-83
2023/01/18 04:22:42;;;;;;;;;26.25;16.25;;;;;;;;5083280;28;61824;-82
2023/01/18 04:25:08;;;;;;;;;16.50;13.75;;;;;;;;5084119;28;62121;-83
2023/01/18 04:27:33;;;;;;;;;18.75;13.50;;;;;;;;5083593;28;61889;-83
2023/01/18 04:29:59;;;;;;;;;24.75;18.25;;;;;;;;5065561;28;61860;-83
2023/01/18 04:32:24;;;;;;;;;17.25;17.00;;;;;;;;5064956;28;64111;-83
2023/01/18 04:34:49;;;;;;;;;23.00;18.00;;;;;;;;5083657;28;62129;-83
2023/01/18 04:37:15;;;;;;;;;19.50;15.00;;;;;;;;5083632;28;61776;-82
2023/01/18 04:39:40;;;;;;;;;20.00;17.00;;;;;;;;5083514;28;61892;-83
2023/01/18 04:42:05;;;;;;;;;13.50;11.75;;;;;;;;5082725;28;62044;-83
2023/01/18 04:44:30;;;;;;;;;23.25;16.25;;;;;;;;5083860;28;61962;-83
2023/01/18 04:46:56;;;;;;;;;18.50;14.25;;;;;;;;5083464;28;61836;-83
2023/01/18 04:49:21;;;;;;;;;19.25;17.75;;;;;;;;5092942;27;61912;-83
2023/01/18 04:51:47;;;;;;;;;26.25;17.00;;;;;;;;5103504;27;62923;-82
2023/01/18 04:54:13;;;;;;;;;20.00;16.50;;;;;;;;5103578;27;61957;-83
2023/01/18 04:56:38;;;;;;;;;19.25;16.25;;;;;;;;5085348;27;62512;-83
2023/01/18 04:59:04;;;;;;;;;18.25;15.00;;;;;;;;5103925;27;61718;-83
2023/01/18 05:01:29;;;;;;;;;28.50;17.00;;;;;;;;5103685;27;61796;-83
2023/01/18 05:03:55;;;;;;;;;16.00;11.00;;;;;;;;5103811;27;61759;-83
2023/01/18 05:06:20;;;;;;;;;18.50;15.25;;;;;;;;5103535;27;61811;-83
2023/01/18 05:08:46;;;;;;;;;19.75;16.25;;;;;;;;5103438;27;61750;-84
2023/01/18 05:11:13;;;;;;;;;14.50;8.00;;;;;;;;5084003;27;63644;-83
2023/01/18 05:13:39;;;;;;;;;22.25;15.75;;;;;;;;5085315;27;61874;-83
2023/01/18 05:16:04;;;;;;;;;32.25;18.00;;;;;;;;5103397;27;61843;-83
2023/01/18 05:18:30;;;;;;;;;32.25;18.75;;;;;;;;5103697;27;61968;-83
2023/01/18 05:20:55;;;;;;;;;17.00;17.00;;;;;;;;5102716;27;63233;-83
2023/01/18 05:23:21;;;;;;;;;28.50;16.00;;;;;;;;5099674;27;61931;-83
2023/01/18 05:25:51;;;;;;;;;20.75;15.25;;;;;;;;5083130;28;62323;-83
2023/01/18 05:28:16;;;;;;;;;13.50;11.00;;;;;;;;5082702;28;62034;-83
2023/01/18 05:30:43;;;;;;;;;18.50;15.25;;;;;;;;5064291;28;63629;-83
2023/01/18 05:33:09;;;;;;;;;19.00;15.00;;;;;;;;5082817;28;61690;-84
2023/01/18 05:35:36;;;;;;;;;16.25;14.50;;;;;;;;5082701;28;61965;-83
2023/01/18 05:38:01;;;;;;;;;22.25;16.75;;;;;;;;5064121;28;62159;-83
2023/01/18 05:40:26;;;;;;;;;15.00;13.25;;;;;;;;5082409;28;63512;-83
2023/01/18 05:42:52;;;;;;;;;29.25;17.25;;;;;;;;5082260;28;62605;-83
2023/01/18 05:45:18;;;;;;;;;14.75;13.00;;;;;;;;5064359;28;61849;-83
2023/01/18 05:47:44;;;;;;;;;18.50;17.75;;;;;;;;5082960;28;61935;-83
2023/01/18 05:50:09;;;;;;;;;16.75;14.25;;;;;;;;5097572;27;61844;-84
2023/01/18 05:52:34;;;;;;;;;22.75;18.00;;;;;;;;5103241;27;62035;-83
2023/01/18 05:55:00;;;;;;;;;18.50;13.75;;;;;;;;5084412;27;62087;-83
2023/01/18 05:57:25;;;;;;;;;23.00;17.00;;;;;;;;5102842;27;61688;-83
2023/01/18 05:59:50;;;;;;;;;21.25;15.00;;;;;;;;5084083;27;63569;-83
2023/01/18 06:02:17;;;;;;;;;14.00;13.00;;;;;;;;5102786;27;62114;-83
2023/01/18 06:04:43;;;;;;;;;22.25;15.75;;;;;;;;5102492;27;61872;-83
2023/01/18 06:07:08;;;;;;;;;20.75;14.00;;;;;;;;5102214;27;62136;-84
2023/01/18 06:09:33;;;;;;;;;21.00;16.75;;;;;;;;5101995;27;63165;-83
2023/01/18 06:11:58;;;;;;;;;28.75;18.25;;;;;;;;5083804;27;61923;-83
2023/01/18 06:14:24;;;;;;;;;20.75;13.50;;;;;;;;5084316;27;61714;-82
2023/01/18 06:16:49;;;;;;;;;16.50;16.50;;;;;;;;5102966;27;61673;-79
2023/01/18 06:19:14;;;;;;;;;20.50;12.75;;;;;;;;5102776;27;63092;-82
2023/01/18 06:21:39;;;;;;;;;21.75;14.50;;;;;;;;5102959;27;61769;-83
2023/01/18 06:24:05;;;;;;;;;19.50;16.25;;;;;;;;5084010;27;61820;-82
2023/01/18 06:26:30;;;;;;;;;14.75;14.00;;;;;;;;5103074;27;61733;-82
2023/01/18 06:28:56;;;;;;;;;23.00;15.25;;;;;;;;5101822;27;61738;-80
2023/01/18 06:31:22;;;;;;;;;28.75;19.75;;;;;;;;5102116;27;61754;-86
2023/01/18 06:33:47;;;;;;;;;17.50;11.00;;;;;;;;5072968;28;61953;-81
2023/01/18 06:36:12;;;;;;;;;17.00;15.00;;;;;;;;5081673;27;61872;-81
2023/01/18 06:38:38;;;;;;;;;17.25;14.00;;;;;;;;5075763;28;63751;-81
2023/01/18 06:41:03;;;;;;;;;12.75;10.00;;;;;;;;5079921;28;61915;-81
2023/01/18 06:43:28;;;;;;;;;22.00;11.00;;;;;;;;5063225;28;61953;-83
2023/01/18 06:45:54;;;;;;;;;18.25;14.50;;;;;;;;5080354;28;61962;-79
2023/01/18 06:48:20;;;;;;;;;27.25;15.25;;;;;;;;5060645;27;63473;-84
2023/01/18 06:50:46;;;;;;;;;21.50;16.50;;;;;;;;5089051;27;61781;-81
2023/01/18 06:53:11;;;;;;;;;22.00;15.50;;;;;;;;5079221;28;62387;-81
2023/01/18 06:55:36;;;;;;;;;15.50;13.00;;;;;;;;5081742;28;61708;-81
2023/01/18 06:58:01;;;;;;;;;16.00;16.00;;;;;;;;5079085;28;63913;-81
2023/01/18 07:00:27;;;;;;;;;14.00;13.00;;;;;;;;5079763;28;62010;-81
2023/01/18 07:02:53;;;;;;;;;14.00;11.00;;;;;;;;5081019;28;61873;-80
2023/01/18 07:05:18;;;;;;;;;18.00;16.50;;;;;;;;5080215;28;61829;-81
2023/01/18 07:07:44;;;;;;;;;16.25;16.25;;;;;;;;5080200;27;62242;-80
2023/01/18 07:10:10;;;;;;;;;22.75;18.75;;;;;;;;5081049;28;61710;-80
2023/01/18 07:12:35;;;;;;;;;19.75;15.25;;;;;;;;5063007;28;61749;-80
2023/01/18 07:15:00;;;;;;;;;25.00;17.75;;;;;;;;5063240;28;61996;-80
2023/01/18 07:17:25;;;;;;;;;17.25;14.50;;;;;;;;5080303;28;62655;-80
2023/01/18 07:19:51;;;;;;;;;18.00;15.75;;;;;;;;5085011;28;61840;-80
2023/01/18 07:22:16;;;;;;;;;22.25;20.25;;;;;;;;5084618;28;61852;-80
2023/01/18 07:24:41;;;;;;;;;24.75;20.00;;;;;;;;5066660;28;61811;-80
2023/01/18 07:27:07;;;;;;;;;27.75;20.00;;;;;;;;5084051;28;62349;-80
2023/01/18 07:29:32;;;;;;;;;23.75;20.75;;;;;;;;5066022;28;62378;-80
2023/01/18 07:31:58;;;;;;;;;22.25;20.50;;;;;;;;5066137;27;61956;-80
2023/01/18 07:34:23;;;;;;;;;37.50;27.00;;;;;;;;5085308;28;61348;-81
2023/01/18 07:36:49;;;;;;;;;30.00;22.67;;;;;;;;5084566;28;61867;-80
2023/01/18 07:39:14;;;;;;;;;31.67;20.67;;;;;;;;5063641;28;61922;-80
2023/01/18 07:41:40;;;;;;;;;16.00;13.33;;;;;;;;5082827;28;62590;-81
2023/01/18 07:44:08;;;;;;;;;10.00;8.00;;;;;;;;5065797;28;61837;-81
2023/01/18 07:46:33;;;;;;;;;28.33;21.67;;;;;;;;5082653;28;62565;-85
2023/01/18 07:49:01;;;;;;;;;27.50;21.50;;;;;;;;5071626;27;61955;-82
2023/01/18 07:51:26;;;;;;;;;26.00;21.75;;;;;;;;5086575;27;61845;-82
2023/01/18 07:53:52;;;;;;;;;38.75;25.75;;;;;;;;5105003;27;61803;-82
2023/01/18 07:56:17;;;;;;;;;33.00;21.00;;;;;;;;5084314;27;63672;-82
2023/01/18 07:58:43;;;;;;;;;36.75;21.00;;;;;;;;5084766;27;61832;-84
2023/01/18 08:01:13;;;;;;;;;26.75;20.00;;;;;;;;5104561;27;61824;-84
2023/01/18 08:03:40;;;;;;;;;27.75;21.75;;;;;;;;5086030;27;61752;-84
2023/01/18 08:06:06;;;;;;;;;29.75;24.00;;;;;;;;5085398;27;63643;-84
2023/01/18 08:08:32;;;;;;;;;42.67;34.33;;;;;;;;5103744;27;61871;-84
2023/01/18 08:10:58;;;;;;;;;46.67;35.67;;;;;;;;5104015;27;61883;-83
2023/01/18 08:13:24;;;;;;;;;61.00;36.33;;;;;;;;5073279;28;61799;-84
2023/01/18 08:15:49;;;;;;;;;40.33;31.33;;;;;;;;5064955;28;63556;-84
2023/01/18 08:18:15;;;;;;;;;36.00;29.00;;;;;;;;5065522;28;61880;-84
2023/01/18 08:20:47;;;;;;;;;31.50;26.00;;;;;;;;5083834;28;61800;-84
2023/01/18 08:23:12;;;;;;;;;29.25;23.50;;;;;;;;5065739;28;61895;-84
2023/01/18 08:25:37;;;;;;;;;25.25;20.75;;;;;;;;5083006;28;62765;-84
2023/01/18 08:28:03;;;;;;;;;31.25;22.00;;;;;;;;5064871;28;61823;-85
2023/01/18 08:30:31;;;;;;;;;26.25;20.25;;;;;;;;5064776;28;61825;-85
2023/01/18 08:32:58;;;;;;;;;21.25;18.25;;;;;;;;5084000;28;61769;-85
2023/01/18 08:35:24;;;;;;;;;24.00;23.00;;;;;;;;5064557;28;64654;-84
2023/01/18 08:37:51;;;;;;;;;26.00;20.25;;;;;;;;5083258;28;61958;-84
2023/01/18 08:40:16;;;;;;;;;29.00;20.25;;;;;;;;5083509;28;61779;-84
2023/01/18 08:42:42;;;;;;;;;25.00;23.50;;;;;;;;5064819;28;61867;-83
2023/01/18 08:45:08;;;;;;;;;36.25;23.50;;;;;;;;5082863;28;63297;-84
2023/01/18 08:47:34;;;;;;;;;30.50;21.75;;;;;;;;5064888;28;62632;-83
2023/01/18 08:50:00;;;;;;;;;23.75;20.25;;;;;;;;5098150;27;61902;-83
2023/01/18 08:52:25;;;;;;;;;23.00;17.50;;;;;;;;5103693;27;61916;-83
2023/01/18 08:54:51;;;;;;;;;18.00;15.50;;;;;;;;5084332;27;63708;-81
2023/01/18 08:57:16;;;;;;;;;27.00;20.75;;;;;;;;5103601;27;61887;-83
2023/01/18 08:59:41;;;;;;;;;24.25;19.50;;;;;;;;5103332;27;61675;-83
2023/01/18 09:02:08;;;;;;;;;26.75;21.50;;;;;;;;5103813;27;61876;-83
2023/01/18 09:04:34;;;;;;;;;24.50;18.00;;;;;;;;5084470;27;64968;-82
2023/01/18 09:07:00;;;;;;;;;28.00;17.50;;;;;;;;5103524;27;61809;-83
2023/01/18 09:09:25;;;;;;;;;23.75;20.00;;;;;;;;5103388;27;61952;-83
2023/01/18 09:11:51;;;;;;;;;25.00;18.50;;;;;;;;5103396;27;62017;-83
2023/01/18 09:14:16;;;;;;;;;22.25;20.50;;;;;;;;5102717;27;61817;-83
2023/01/18 09:16:41;;;;;;;;;28.00;23.25;;;;;;;;5102795;27;61755;-88
2023/01/18 09:19:07;;;;;;;;;38.75;28.25;;;;;;;;5085151;27;61808;-84
2023/01/18 09:21:33;;;;;;;;;28.50;24.00;;;;;;;;5103414;27;61695;-84
2023/01/18 09:23:58;;;;;;;;;22.25;18.50;;;;;;;;5102828;27;62941;-84
2023/01/18 09:26:23;;;;;;;;;26.00;20.50;;;;;;;;5103275;27;61769;-82
2023/01/18 09:28:51;;;;;;;;;26.50;19.50;;;;;;;;5084397;27;62181;-84
2023/01/18 09:31:17;;;;;;;;;24.50;16.75;;;;;;;;5085204;27;62068;-84
2023/01/18 09:33:42;;;;;;;;;21.50;18.00;;;;;;;;5082404;27;62507;-84
2023/01/18 09:36:09;;;;;;;;;28.25;20.25;;;;;;;;5044213;28;62016;-84
2023/01/18 09:38:35;;;;;;;;;21.25;17.50;;;;;;;;5061051;28;61972;-84
2023/01/18 09:41:01;;;;;;;;;22.50;14.75;;;;;;;;5081805;28;61809;-84
2023/01/18 09:43:28;;;;;;;;;23.75;19.00;;;;;;;;5063320;28;64690;-85
2023/01/18 09:45:55;;;;;;;;;18.75;18.00;;;;;;;;5064768;28;61846;-85
2023/01/18 09:48:39;;;;;;;;;26.75;19.00;;;;;;;;5083000;27;61964;-89
2023/01/18 09:51:19;;;;;;;;;19.50;17.25;;;;;;;;5085455;27;61856;-90
2023/01/18 09:54:03;;;;;;;;;25.25;22.00;;;;;;;;5102244;27;62961;-89
2023/01/18 09:56:47;;;;;;;;;19.75;17.00;;;;;;;;5102595;27;62158;-88
2023/01/18 09:59:17;;;;;;;;;18.75;11.50;;;;;;;;5103077;27;61899;-89
2023/01/18 10:01:43;;;;;;;;;19.25;11.75;;;;;;;;5102771;27;61757;-89
2023/01/18 10:04:22;;;;;;;;;16.00;13.75;;;;;;;;5102151;27;61748;-89
2023/01/18 10:06:51;;;;;;;;;18.25;17.00;;;;;;;;5084035;27;61775;-88
2023/01/18 10:09:16;;;;;;;;;15.00;12.50;;;;;;;;5102483;27;61940;-89
2023/01/18 10:11:46;;;;;;;;;19.00;12.25;;;;;;;;5101948;27;61796;-89
2023/01/18 10:14:31;;;;;;;;;17.00;12.75;;;;;;;;5083389;27;64077;-90
2023/01/18 10:16:59;;;;;;;;;12.75;12.25;;;;;;;;5102455;27;61986;-89
2023/01/18 10:19:26;;;;;;;;;19.50;14.00;;;;;;;;5084215;27;61749;-89
2023/01/18 10:22:07;;;;;;;;;24.25;13.00;;;;;;;;5102530;27;61757;-88
2023/01/18 10:24:41;;;;;;;;;9.00;8.75;;;;;;;;5102191;27;62368;-88
2023/01/18 10:27:19;;;;;;;;;12.00;9.50;;;;;;;;5102330;27;61779;-90
2023/01/18 10:29:44;;;;;;;;;8.50;7.00;;;;;;;;5083832;27;62044;-90
2023/01/18 10:32:16;;;;;;;;;12.50;6.00;;;;;;;;5102894;27;61681;-90
2023/01/18 10:34:44;;;;;;;;;8.75;7.25;;;;;;;;5082274;27;61792;-89
2023/01/18 10:37:34;;;;;;;;;6.50;5.00;;;;;;;;5063666;28;62021;-89
2023/01/18 10:40:01;;;;;;;;;7.75;5.75;;;;;;;;5081521;28;62078;-90
2023/01/18 10:42:45;;;;;;;;;6.50;5.00;;;;;;;;5081906;28;61928;-90
2023/01/18 10:45:18;;;;;;;;;9.00;6.00;;;;;;;;5081359;28;61872;-89
2023/01/18 10:47:44;;;;;;;;;6.00;4.00;;;;;;;;5081515;28;61802;-89
2023/01/18 10:50:14;;;;;;;;;8.00;8.00;;;;;;;;5097725;27;61985;-90
2023/01/18 10:52:40;;;;;;;;;9.75;6.00;;;;;;;;5103842;27;61832;-90
2023/01/18 10:55:08;;;;;;;;;9.00;8.00;;;;;;;;5086353;27;63495;-89
2023/01/18 10:57:42;;;;;;;;;9.50;7.50;;;;;;;;5105442;27;62011;-90
2023/01/18 11:00:20;;;;;;;;;8.00;5.00;;;;;;;;5087127;27;61866;-90
2023/01/18 11:02:46;;;;;;;;;7.00;5.25;;;;;;;;5086542;27;61798;-89
2023/01/18 11:05:26;;;;;;;;;4.75;3.25;;;;;;;;5086316;27;63693;-90
2023/01/18 11:08:11;;;;;;;;;8.75;6.00;;;;;;;;5086521;27;61805;-90
2023/01/18 11:10:37;;;;;;;;;9.50;5.00;;;;;;;;5087004;27;61906;-90
2023/01/18 11:13:02;;;;;;;;;8.50;6.00;;;;;;;;5107233;27;62188;-91
2023/01/18 11:15:27;;;;;;;;;8.25;6.50;;;;;;;;5087000;27;63587;-90
2023/01/18 11:17:56;;;;;;;;;4.25;4.25;;;;;;;;5086862;27;61835;-90
2023/01/18 11:20:37;;;;;;;;;5.50;5.25;;;;;;;;5105604;27;61697;-91
2023/01/18 11:23:26;;;;;;;;;8.00;6.25;;;;;;;;5087055;27;61808;-90
2023/01/18 11:26:00;;;;;;;;;6.00;6.00;;;;;;;;5080944;27;64037;-91
2023/01/18 11:28:28;;;;;;;;;11.50;9.00;;;;;;;;5086807;27;61990;-88
2023/01/18 11:30:56;;;;;;;;;7.75;7.25;;;;;;;;5086589;27;62079;-89
2023/01/18 11:33:23;;;;;;;;;10.25;6.00;;;;;;;;5072059;28;62181;-88
2023/01/18 11:35:52;;;;;;;;;7.00;6.25;;;;;;;;5063857;28;62835;-88
2023/01/18 11:38:18;;;;;;;;;13.00;9.00;;;;;;;;5062652;28;61894;-88
2023/01/18 11:40:43;;;;;;;;;7.00;6.00;;;;;;;;5065141;28;61898;-82
2023/01/18 11:43:24;;;;;;;;;17.25;11.50;;;;;;;;5085388;28;61633;-81
2023/01/18 11:46:19;;;;;;;;;9.00;6.50;;;;;;;;5084323;28;61814;-81
2023/01/18 11:48:51;;;;;;;;;2.50;2.50;;;;;;;;5078568;27;61908;-82
2023/01/18 11:51:23;;;;;;;;;6.00;5.00;;;;;;;;5104921;27;61810;-83
2023/01/18 11:54:04;;;;;;;;;7.25;5.00;;;;;;;;5086271;27;61736;-83
2023/01/18 11:56:32;;;;;;;;;6.25;6.00;;;;;;;;5104008;27;61732;-82
2023/01/18 11:58:58;;;;;;;;;6.00;5.00;;;;;;;;5104594;27;61699;-83
2023/01/18 12:01:34;;;;;;;;;10.50;5.25;;;;;;;;5104650;27;61736;-83
2023/01/18 12:03:59;;;;;;;;;5.00;2.50;;;;;;;;5085789;27;62132;-82
2023/01/18 12:06:43;;;;;;;;;5.00;2.25;;;;;;;;5104242;27;62639;-80
2023/01/18 12:09:11;;;;;;;;;5.00;3.00;;;;;;;;5104409;27;61834;-82
2023/01/18 12:11:36;;;;;;;;;2.00;2.00;;;;;;;;5104311;27;61813;-82
2023/01/18 12:14:20;;;;;;;;;4.00;4.00;;;;;;;;5086304;27;62106;-83
2023/01/18 12:16:54;;;;;;;;;2.00;2.00;;;;;;;;5103886;27;61963;-83
2023/01/18 12:19:31;;;;;;;;;5.50;2.25;;;;;;;;5090123;27;61831;-83
2023/01/18 12:22:26;;;;;;;;;6.00;2.00;;;;;;;;5083184;28;61911;-84
2023/01/18 12:24:52;;;;;;;;;4.00;2.25;;;;;;;;5064931;27;62421;-83
2023/01/18 12:27:17;;;;;;;;;2.50;2.50;;;;;;;;5078773;28;62364;-82
2023/01/18 12:30:02;;;;;;;;;5.50;2.75;;;;;;;;5069825;28;61884;-82
2023/01/18 12:32:46;;;;;;;;;5.75;3.00;;;;;;;;5063429;28;61797;-81
2023/01/18 12:35:12;;;;;;;;;3.00;3.00;;;;;;;;5081032;28;62085;-80
2023/01/18 12:37:38;;;;;;;;;11.00;3.00;;;;;;;;5080313;28;61911;-80
2023/01/18 12:40:24;;;;;;;;;5.00;2.50;;;;;;;;5080883;28;61764;-81
2023/01/18 12:43:05;;;;;;;;;3.00;3.00;;;;;;;;5065744;28;61896;-80
2023/01/18 12:45:49;;;;;;;;;7.50;5.00;;;;;;;;5081409;28;61689;-79
2023/01/18 12:48:17;;;;;;;;;3.75;2.50;;;;;;;;5069111;28;63846;-79
2023/01/18 12:50:45;;;;;;;;;2.50;2.50;;;;;;;;5070285;28;61967;-78
2023/01/18 12:53:22;;;;;;;;;4.75;2.00;;;;;;;;5073879;28;61964;-79
2023/01/18 12:55:50;;;;;;;;;2.00;2.00;;;;;;;;5061747;28;62190;-79
2023/01/18 12:58:24;;;;;;;;;6.00;4.00;;;;;;;;5049592;28;64196;-79
2023/01/18 13:00:52;;;;;;;;;1.00;1.00;;;;;;;;5068405;28;61950;-79
2023/01/18 13:03:21;;;;;;;;;2.50;2.50;;;;;;;;5070667;28;62175;-79
2023/01/18 13:05:59;;;;;;;;;3.50;1.00;;;;;;;;5080266;28;61903;-79
2023/01/18 13:08:33;;;;;;;;;4.00;2.75;;;;;;;;5078325;28;62251;-78
2023/01/18 13:11:08;;;;;;;;;2.00;2.00;;;;;;;;5079840;28;61942;-79
2023/01/18 13:13:34;;;;;;;;;2.25;2.25;;;;;;;;5069173;28;61861;-78
2023/01/18 13:15:59;;;;;;;;;6.00;2.00;;;;;;;;5069306;28;61934;-78
2023/01/18 13:18:29;;;;;;;;;3.00;2.25;;;;;;;;5079380;28;61928;-79
2023/01/18 13:21:14;;;;;;;;;3.00;2.50;;;;;;;;5069296;28;62016;-79
2023/01/18 13:23:49;;;;;;;;;1.50;1.50;;;;;;;;5063932;28;62206;-79
2023/01/18 13:26:26;;;;;;;;;3.25;3.00;;;;;;;;5079276;28;62415;-78
2023/01/18 13:29:24;;;;;;;;;1.50;1.50;;;;;;;;5078305;28;62348;-79
2023/01/18 13:31:50;;;;;;;;;1.50;1.50;;;;;;;;5067785;28;61711;-79
2023/01/18 13:34:28;;;;;;;;;4.25;3.00;;;;;;;;5077424;28;61932;-78
2023/01/18 13:36:55;;;;;;;;;1.25;1.25;;;;;;;;5079348;28;62008;-79
2023/01/18 13:39:21;;;;;;;;;3.75;3.75;;;;;;;;5079809;28;62691;-78
2023/01/18 13:42:19;;;;;;;;;2.50;1.00;;;;;;;;5068846;28;62005;-79
2023/01/18 13:44:46;;;;;;;;;2.50;2.00;;;;;;;;5058107;28;61976;-80
2023/01/18 13:47:30;;;;;;;;;1.00;1.00;;;;;;;;5066109;28;62093;-79
2023/01/18 13:49:55;;;;;;;;;2.00;2.00;;;;;;;;5063524;28;64978;-78
2023/01/18 13:52:29;;;;;;;;;0.75;0.75;;;;;;;;5080428;28;61927;-79
2023/01/18 13:54:54;;;;;;;;;1.50;1.00;;;;;;;;5070728;28;62075;-79
2023/01/18 13:57:20;;;;;;;;;4.25;2.75;;;;;;;;5076413;28;61912;-79
2023/01/18 13:59:47;;;;;;;;;3.25;3.00;;;;;;;;5080626;28;62028;-79
2023/01/18 14:02:26;;;;;;;;;8.50;6.00;;;;;;;;5078990;28;62120;-79
2023/01/18 14:04:58;;;;;;;;;2.50;2.50;;;;;;;;5081407;28;61805;-78
2023/01/18 14:07:23;;;;;;;;;1.50;1.00;;;;;;;;5081448;28;61892;-79
2023/01/18 14:09:49;;;;;;;;;2.50;1.50;;;;;;;;5080833;27;62546;-80
2023/01/18 14:12:34;;;;;;;;;1.25;1.25;;;;;;;;5080695;27;62309;-79
2023/01/18 14:15:00;;;;;;;;;5.75;1.75;;;;;;;;5080388;28;62145;-79
2023/01/18 14:17:25;;;;;;;;;1.00;1.00;;;;;;;;5082108;28;61823;-79
2023/01/18 14:20:24;;;;;;;;;1.00;1.00;;;;;;;;5080108;28;63572;-79
2023/01/18 14:22:52;;;;;;;;;1.50;1.00;;;;;;;;5080510;28;61926;-79
2023/01/18 14:25:32;;;;;;;;;0.00;0.00;;;;;;;;5079223;27;61789;-79
2023/01/18 14:28:03;;;;;;;;;2.00;1.00;;;;;;;;5045760;28;62104;-79
2023/01/18 14:30:30;;;;;;;;;4.25;2.00;;;;;;;;5080424;28;61759;-79
2023/01/18 14:32:59;;;;;;;;;6.25;2.75;;;;;;;;5084689;28;61802;-79
2023/01/18 14:35:24;;;;;;;;;3.50;0.75;;;;;;;;5065176;28;61918;-79
2023/01/18 14:37:49;;;;;;;;;5.25;1.25;;;;;;;;5065575;28;61967;-79
2023/01/18 14:40:20;;;;;;;;;1.25;0.75;;;;;;;;5064319;28;62586;-79
2023/01/18 14:42:47;;;;;;;;;1.00;1.00;;;;;;;;5064697;28;61873;-79
2023/01/18 14:45:17;;;;;;;;;1.25;1.00;;;;;;;;5047277;28;61814;-79
2023/01/18 14:47:43;;;;;;;;;1.25;1.25;;;;;;;;5046833;28;62040;-79
2023/01/18 14:50:13;;;;;;;;;0.00;0.00;;;;;;;;5096408;27;62869;-79
2023/01/18 14:52:38;;;;;;;;;2.00;1.00;;;;;;;;5082815;27;61770;-79
2023/01/18 14:55:04;;;;;;;;;2.75;1.75;;;;;;;;5085088;28;61929;-79
2023/01/18 14:57:29;;;;;;;;;1.00;1.00;;;;;;;;5084927;28;61940;-79
2023/01/18 15:00:15;;;;;;;;;3.00;3.00;;;;;;;;5084964;28;62058;-78
2023/01/18 15:02:40;;;;;;;;;2.50;1.75;;;;;;;;5084796;28;61770;-79
2023/01/18 15:05:13;;;;;;;;;5.00;3.00;;;;;;;;5067072;28;62228;-79
2023/01/18 15:07:39;;;;;;;;;1.25;1.25;;;;;;;;5084759;28;61745;-78
2023/01/18 15:10:06;;;;;;;;;6.25;3.00;;;;;;;;5065548;28;63614;-78
2023/01/18 15:12:32;;;;;;;;;4.00;2.75;;;;;;;;5085028;28;62095;-78
2023/01/18 15:15:06;;;;;;;;;2.00;2.00;;;;;;;;5084965;28;61837;-79